Time;durP1;ratioP1;P1;durP2;ratioP2;P2;SDS_P1;SDS_P2;PMS_P1;PMS_P2;Temp;Humidity;BMP_temperature;BMP_pressure;BME280_temperature;BME280_humidity;BME280_pressure;Samples;Min_cycle;Max_cycle;Signal;HPM_P1;HPM_P2
2021/12/26 09:27:31;;;;;;;13.05;8.70;;;;;;;;;;6220236;23;20005;-85
2021/12/26 09:29:56;;;;;;;16.50;11.50;;;;;;;;;;6221031;23;20019;-86
2021/12/26 09:32:22;;;;;;;13.10;9.85;;;;;;;;;;6221253;23;20008;-85
2021/12/26 09:34:47;;;;;;;10.75;8.60;;;;;;;;;;6247507;23;20001;-85
2021/12/26 09:37:14;;;;;;;11.35;8.65;;;;;;;;;;6248168;23;20054;-85
2021/12/26 09:39:40;;;;;;;14.48;10.60;;;;;;;;;;6248344;23;20051;-86
2021/12/26 09:42:06;;;;;;;17.55;11.85;;;;;;;;;;6248780;23;19996;-84
2021/12/26 09:44:31;;;;;;;17.55;11.57;;;;;;;;;;6221715;23;20008;-84
2021/12/26 09:46:57;;;;;;;17.45;11.60;;;;;;;;;;6248048;23;20011;-83
2021/12/26 09:49:22;;;;;;;17.45;12.50;;;;;;;;;;6247856;23;20030;-84
2021/12/26 09:51:52;;;;;;;15.88;11.77;;;;;;;;;;6247986;23;20000;-85
2021/12/26 09:54:19;;;;;;;17.02;12.25;;;;;;;;;;6247978;23;20004;-84
2021/12/26 09:56:44;;;;;;;14.57;11.45;;;;;;;;;;6221039;23;20445;-83
2021/12/26 09:59:16;;;;;;;14.18;12.13;;;;;;;;;;6248493;23;20004;-84
2021/12/26 10:01:44;;;;;;;15.57;11.65;;;;;;;;;;6247521;23;20079;-83
2021/12/26 10:04:09;;;;;;;11.80;9.77;;;;;;;;;;6251701;23;20070;-83
2021/12/26 10:06:35;;;;;;;12.63;10.65;;;;;;;;;;6248959;23;20107;-91
2021/12/26 10:09:10;;;;;;;10.00;8.27;;;;;;;;;;6254903;23;20009;-82
2021/12/26 10:11:42;;;;;;;8.38;7.38;;;;;;;;;;6253534;23;20000;-82
2021/12/26 10:14:22;;;;;;;8.75;7.75;;;;;;;;;;6251183;23;20000;-83
2021/12/26 10:16:50;;;;;;;9.32;8.02;;;;;;;;;;6249413;23;20015;-83
2021/12/26 10:19:16;;;;;;;8.95;7.55;;;;;;;;;;6247972;23;20008;-95
2021/12/26 10:21:47;;;;;;;9.50;8.52;;;;;;;;;;6247216;23;20011;-80
2021/12/26 10:24:18;;;;;;;8.50;7.75;;;;;;;;;;6247480;23;20007;-81
2021/12/26 10:26:49;;;;;;;9.13;8.23;;;;;;;;;;6246963;23;20058;-80
2021/12/26 10:29:19;;;;;;;9.38;8.57;;;;;;;;;;6247524;23;20000;-80
2021/12/26 10:31:51;;;;;;;9.20;8.40;;;;;;;;;;6246962;23;20468;-81
2021/12/26 10:34:21;;;;;;;8.85;8.05;;;;;;;;;;6247629;23;20050;-91
2021/12/26 10:36:48;;;;;;;9.43;8.52;;;;;;;;;;6220244;23;20316;-81
2021/12/26 10:39:17;;;;;;;8.57;7.68;;;;;;;;;;6220034;23;20012;-82
2021/12/26 10:41:47;;;;;;;9.15;8.35;;;;;;;;;;6247110;23;20032;-81
2021/12/26 10:44:25;;;;;;;8.57;7.82;;;;;;;;;;6247128;23;20083;-81
2021/12/26 10:46:59;;;;;;;8.73;7.90;;;;;;;;;;6246897;23;20059;-94
2021/12/26 10:49:38;;;;;;;8.48;7.78;;;;;;;;;;6247888;23;20008;-80
2021/12/26 10:52:14;;;;;;;7.97;7.27;;;;;;;;;;6247274;23;20000;-80
2021/12/26 10:54:41;;;;;;;8.70;7.90;;;;;;;;;;6247171;23;20004;-80
2021/12/26 10:57:20;;;;;;;8.43;7.72;;;;;;;;;;6246668;23;20010;-84
2021/12/26 10:59:57;;;;;;;7.63;6.93;;;;;;;;;;6220112;23;20331;-82
2021/12/26 11:02:28;;;;;;;7.53;6.82;;;;;;;;;;6246928;23;20031;-87
2021/12/26 11:05:04;;;;;;;7.95;7.15;;;;;;;;;;6219342;23;20012;-79
2021/12/26 11:07:39;;;;;;;8.30;7.50;;;;;;;;;;6246418;23;20008;-80
2021/12/26 11:10:12;;;;;;;8.25;7.45;;;;;;;;;;6246888;23;20050;-79
2021/12/26 11:12:47;;;;;;;6.65;6.05;;;;;;;;;;6247239;23;20000;-90
2021/12/26 11:15:14;;;;;;;7.22;6.63;;;;;;;;;;6246881;23;20030;-87
2021/12/26 11:17:44;;;;;;;9.05;6.40;;;;;;;;;;6247126;23;20011;-82
2021/12/26 11:20:21;;;;;;;6.72;6.15;;;;;;;;;;6219999;23;20012;-84
2021/12/26 11:22:47;;;;;;;6.93;6.32;;;;;;;;;;6246866;23;20069;-81
2021/12/26 11:25:12;;;;;;;7.57;6.93;;;;;;;;;;6246782;23;20423;-79
2021/12/26 11:27:38;;;;;;;7.55;6.85;;;;;;;;;;6220414;23;20403;-87
2021/12/26 11:30:07;;;;;;;7.00;6.32;;;;;;;;;;6247379;23;20008;-80
2021/12/26 11:32:34;;;;;;;7.32;6.63;;;;;;;;;;6247040;23;20031;-88
2021/12/26 11:35:00;;;;;;;6.47;5.88;;;;;;;;;;6246895;23;20000;-80
2021/12/26 11:37:27;;;;;;;7.10;6.28;;;;;;;;;;6247326;23;20078;-85
2021/12/26 11:39:54;;;;;;;7.20;6.50;;;;;;;;;;6246834;23;20000;-81
2021/12/26 11:42:51;;;;;;;8.23;7.35;;;;;;;;;;6246333;23;20000;-79
2021/12/26 11:45:23;;;;;;;7.85;6.95;;;;;;;;;;6245185;23;20058;-80
2021/12/26 11:48:25;;;;;;;8.30;7.50;;;;;;;;;;6220330;23;20081;-83
2021/12/26 11:51:22;;;;;;;8.05;7.25;;;;;;;;;;6246713;23;20488;-85
2021/12/26 11:54:02;;;;;;;8.30;7.50;;;;;;;;;;6245698;23;20007;-85
2021/12/26 11:57:02;;;;;;;7.97;6.50;;;;;;;;;;6246677;23;20027;-83
2021/12/26 11:59:38;;;;;;;8.88;7.45;;;;;;;;;;6219863;23;20011;-82
2021/12/26 12:02:04;;;;;;;7.60;6.85;;;;;;;;;;6246728;23;20305;-83
2021/12/26 12:04:30;;;;;;;8.10;7.30;;;;;;;;;;6220183;23;20000;-83
2021/12/26 12:07:04;;;;;;;8.43;6.97;;;;;;;;;;6246713;23;20316;-84
2021/12/26 12:09:32;;;;;;;7.72;6.93;;;;;;;;;;6246237;23;20012;-80
2021/12/26 12:12:09;;;;;;;7.57;6.88;;;;;;;;;;6246419;23;20122;-80
2021/12/26 12:14:53;;;;;;;7.60;6.85;;;;;;;;;;6246354;23;20039;-86
2021/12/26 12:17:25;;;;;;;8.20;7.30;;;;;;;;;;6246866;23;20011;-85
2021/12/26 12:20:18;;;;;;;9.15;7.38;;;;;;;;;;6246273;23;20004;-83
2021/12/26 12:23:07;;;;;;;7.28;6.55;;;;;;;;;;6240868;23;20221;-83
2021/12/26 12:25:41;;;;;;;8.25;7.03;;;;;;;;;;6245922;23;20008;-80
2021/12/26 12:28:40;;;;;;;6.50;5.70;;;;;;;;;;6246189;23;20054;-80
2021/12/26 12:31:09;;;;;;;7.57;5.87;;;;;;;;;;6246556;23;20006;-79
2021/12/26 12:33:36;;;;;;;8.32;6.50;;;;;;;;;;6246304;23;20217;-80
2021/12/26 12:36:26;;;;;;;6.53;5.68;;;;;;;;;;6246133;23;20000;-80
2021/12/26 12:38:51;;;;;;;;;;;;;;;;;;6246747;23;20012;-87
2021/12/26 12:41:29;;;;;;;6.40;5.70;;;;;;;;;;6246366;23;20211;-84
2021/12/26 12:43:57;;;;;;;5.85;5.25;;;;;;;;;;6246449;23;20032;-80
2021/12/26 12:46:22;;;;;;;6.95;6.05;;;;;;;;;;6219354;23;20012;-80
2021/12/26 12:49:00;;;;;;;7.15;6.00;;;;;;;;;;6246755;23;20004;-84
2021/12/26 12:51:32;;;;;;;5.93;5.32;;;;;;;;;;6246712;23;20000;-84
2021/12/26 12:53:59;;;;;;;6.05;4.80;;;;;;;;;;6246718;23;20011;-82
2021/12/26 12:56:35;;;;;;;6.47;5.13;;;;;;;;;;6246130;23;20011;-85
2021/12/26 12:59:13;;;;;;;6.35;5.13;;;;;;;;;;6246373;23;20415;-80
2021/12/26 13:01:47;;;;;;;5.28;4.47;;;;;;;;;;6245934;23;20007;-80
2021/12/26 13:04:14;;;;;;;4.35;3.95;;;;;;;;;;6220459;23;20010;-80
2021/12/26 13:07:00;;;;;;;5.57;4.47;;;;;;;;;;6248149;23;20088;-80
2021/12/26 13:09:28;;;;;;;4.88;4.32;;;;;;;;;;6247993;23;20404;-84
2021/12/26 13:11:59;;;;;;;5.60;4.28;;;;;;;;;;6248089;23;20011;-81
2021/12/26 13:14:38;;;;;;;4.68;3.80;;;;;;;;;;6248645;23;20004;-80
2021/12/26 13:17:29;;;;;;;3.90;3.35;;;;;;;;;;6221079;23;20382;-80
2021/12/26 13:19:57;;;;;;;4.75;3.30;;;;;;;;;;6230015;23;20019;-81
2021/12/26 13:22:45;;;;;;;3.40;2.83;;;;;;;;;;6247949;23;20359;-81
2021/12/26 13:25:24;;;;;;;4.07;3.22;;;;;;;;;;6247853;23;20008;-82
2021/12/26 13:27:50;;;;;;;5.03;3.50;;;;;;;;;;6247663;23;20019;-81
2021/12/26 13:30:15;;;;;;;4.28;3.67;;;;;;;;;;6247706;23;20008;-82
2021/12/26 13:32:43;;;;;;;5.32;4.10;;;;;;;;;;6247919;23;20378;-80
2021/12/26 13:35:09;;;;;;;4.97;3.88;;;;;;;;;;6247955;23;20339;-80
2021/12/26 13:37:35;;;;;;;4.63;3.80;;;;;;;;;;6248106;23;20004;-81
2021/12/26 13:40:05;;;;;;;4.22;3.40;;;;;;;;;;6246933;23;20004;-79
2021/12/26 13:42:31;;;;;;;4.47;3.85;;;;;;;;;;6247400;23;20332;-82
2021/12/26 13:44:57;;;;;;;3.60;3.20;;;;;;;;;;6247893;23;20004;-82
2021/12/26 13:47:23;;;;;;;3.47;3.17;;;;;;;;;;6247379;23;20332;-79
2021/12/26 13:49:48;;;;;;;3.13;2.80;;;;;;;;;;6247514;23;20039;-79
2021/12/26 13:52:19;;;;;;;5.18;3.67;;;;;;;;;;6247498;23;20001;-80
2021/12/26 13:54:50;;;;;;;6.00;4.75;;;;;;;;;;6247953;23;20011;-80
2021/12/26 13:57:19;;;;;;;7.25;6.05;;;;;;;;;;6247240;23;20000;-80
2021/12/26 13:59:51;;;;;;;10.18;7.10;;;;;;;;;;6247551;23;20035;-81
2021/12/26 14:02:24;;;;;;;9.65;7.88;;;;;;;;;;6247057;23;20011;-82
2021/12/26 14:04:59;;;;;;;9.60;7.32;;;;;;;;;;6220470;23;20007;-82
2021/12/26 14:07:31;;;;;;;8.55;7.07;;;;;;;;;;6247426;23;20004;-83
2021/12/26 14:09:59;;;;;;;8.48;7.18;;;;;;;;;;6247216;23;20036;-81
2021/12/26 14:12:32;;;;;;;10.18;7.07;;;;;;;;;;6247023;23;20051;-81
2021/12/26 14:15:44;;;;;;;12.10;9.27;;;;;;;;;;6247374;23;20106;-79
2021/12/26 14:18:18;;;;;;;22.30;16.55;;;;;;;;;;6246677;23;20391;-79
2021/12/26 14:20:48;;;;;;;27.70;19.48;;;;;;;;;;6247267;23;20433;-78
2021/12/26 14:23:19;;;;;;;27.48;19.88;;;;;;;;;;6246827;23;20028;-81
2021/12/26 14:25:45;;;;;;;26.38;19.98;;;;;;;;;;6220071;23;20035;-79
2021/12/26 14:28:18;;;;;;;28.20;21.02;;;;;;;;;;6247053;23;20320;-79
2021/12/26 14:30:46;;;;;;;29.50;21.35;;;;;;;;;;6247253;23;20007;-81
2021/12/26 14:33:13;;;;;;;27.80;20.35;;;;;;;;;;6246578;23;20066;-81
2021/12/26 14:35:39;;;;;;;29.25;21.02;;;;;;;;;;6220237;23;20012;-80
2021/12/26 14:38:07;;;;;;;28.92;21.15;;;;;;;;;;6220367;23;20130;-80
2021/12/26 14:40:32;;;;;;;28.45;21.60;;;;;;;;;;6220410;23;20068;-80
2021/12/26 14:42:58;;;;;;;30.90;21.58;;;;;;;;;;6246888;23;20028;-86
2021/12/26 14:45:23;;;;;;;30.25;21.35;;;;;;;;;;6246932;23;20088;-88
2021/12/26 14:47:50;;;;;;;33.97;23.33;;;;;;;;;;6247272;23;20381;-80
2021/12/26 14:50:23;;;;;;;31.88;22.77;;;;;;;;;;6219993;23;20323;-80
2021/12/26 14:52:51;;;;;;;31.45;22.52;;;;;;;;;;6221161;23;20095;-84
2021/12/26 14:55:28;;;;;;;32.13;22.45;;;;;;;;;;6247278;23;20032;-80
2021/12/26 14:57:55;;;;;;;31.15;21.30;;;;;;;;;;6220245;23;20012;-79
2021/12/26 15:00:26;;;;;;;28.23;20.33;;;;;;;;;;6247377;23;20028;-78
2021/12/26 15:02:58;;;;;;;28.35;20.00;;;;;;;;;;6247073;23;20005;-80
2021/12/26 15:05:33;;;;;;;27.50;19.95;;;;;;;;;;6246964;23;20427;-79
2021/12/26 15:08:04;;;;;;;24.80;18.48;;;;;;;;;;6247831;23;20004;-78
2021/12/26 15:10:33;;;;;;;27.30;20.20;;;;;;;;;;6247118;23;20050;-90
2021/12/26 16:26:59;;;;;;;24.45;17.95;;;;;;;;;;6140890;23;1206877;-85
2021/12/26 16:29:24;;;;;;;26.25;18.92;;;;;;;;;;6246190;23;20008;-85
2021/12/26 16:31:50;;;;;;;29.65;21.45;;;;;;;;;;6246779;23;20000;-86
2021/12/26 16:34:15;;;;;;;28.52;19.98;;;;;;;;;;6246657;23;20010;-89
2021/12/26 16:36:41;;;;;;;26.45;19.75;;;;;;;;;;6219743;23;20000;-85
2021/12/26 16:39:06;;;;;;;27.42;19.50;;;;;;;;;;6247739;23;20004;-82
2021/12/26 16:41:32;;;;;;;29.02;20.02;;;;;;;;;;6247768;23;20059;-88
2021/12/26 16:43:57;;;;;;;27.15;18.65;;;;;;;;;;6248276;23;20442;-85
2021/12/26 16:46:24;;;;;;;31.70;20.55;;;;;;;;;;6248740;23;20049;-86
2021/12/26 16:48:49;;;;;;;28.85;21.52;;;;;;;;;;6248434;23;20004;-83
2021/12/26 16:51:15;;;;;;;29.85;21.02;;;;;;;;;;6248197;23;20304;-81
2021/12/26 16:53:40;;;;;;;30.25;20.63;;;;;;;;;;6247610;23;20022;-92
2021/12/26 16:56:06;;;;;;;29.10;19.90;;;;;;;;;;6247454;23;20004;-83
2021/12/26 16:58:32;;;;;;;27.55;20.83;;;;;;;;;;6248127;23;20428;-85
2021/12/26 17:00:58;;;;;;;31.23;21.92;;;;;;;;;;6248875;23;19999;-83
2021/12/26 17:03:23;;;;;;;28.33;20.00;;;;;;;;;;6248152;23;20007;-88
2021/12/26 17:05:49;;;;;;;30.20;21.05;;;;;;;;;;6248118;23;20000;-84
2021/12/26 17:08:15;;;;;;;29.83;20.92;;;;;;;;;;6221170;23;20000;-82
2021/12/26 17:10:41;;;;;;;32.92;22.90;;;;;;;;;;6248200;23;20047;-87
2021/12/26 17:13:07;;;;;;;32.05;22.13;;;;;;;;;;6248080;23;20035;-82
2021/12/26 17:15:34;;;;;;;29.08;20.35;;;;;;;;;;6247480;23;19997;-81
2021/12/26 17:17:59;;;;;;;29.38;21.73;;;;;;;;;;6247337;23;20000;-83
2021/12/26 17:20:25;;;;;;;34.13;24.27;;;;;;;;;;6247271;23;19996;-82
2021/12/26 17:22:50;;;;;;;32.78;21.35;;;;;;;;;;6247592;23;20054;-82
2021/12/26 17:25:16;;;;;;;31.95;22.42;;;;;;;;;;6247691;23;20027;-82
2021/12/26 17:27:42;;;;;;;31.75;21.30;;;;;;;;;;6247477;23;20004;-82
2021/12/26 17:30:17;;;;;;;32.65;22.45;;;;;;;;;;6248241;23;20514;-82
2021/12/26 17:32:43;;;;;;;33.45;23.13;;;;;;;;;;6248246;23;20011;-83
2021/12/26 17:35:12;;;;;;;32.17;21.95;;;;;;;;;;6247750;23;19997;-82
2021/12/26 17:37:37;;;;;;;33.00;21.98;;;;;;;;;;6247696;23;20012;-83
2021/12/26 17:40:03;;;;;;;36.50;24.73;;;;;;;;;;6221011;23;20491;-82
2021/12/26 17:42:29;;;;;;;33.63;23.45;;;;;;;;;;6247947;23;20005;-86
2021/12/26 17:44:57;;;;;;;26.77;18.67;;;;;;;;;;6220761;23;20085;-83
2021/12/26 17:47:23;;;;;;;25.77;17.95;;;;;;;;;;6247640;23;20086;-88
2021/12/26 17:49:48;;;;;;;24.75;17.15;;;;;;;;;;6247421;23;20000;-86
2021/12/26 17:52:13;;;;;;;22.65;16.65;;;;;;;;;;6220492;23;20011;-90
2021/12/26 17:54:39;;;;;;;23.30;17.13;;;;;;;;;;6247464;23;20070;-87
2021/12/26 17:57:04;;;;;;;24.45;17.08;;;;;;;;;;6247542;23;20004;-88
2021/12/26 17:59:30;;;;;;;21.48;16.77;;;;;;;;;;6247758;23;20000;-89
2021/12/26 18:01:55;;;;;;;24.58;18.00;;;;;;;;;;6247742;23;20007;-87
2021/12/26 18:04:22;;;;;;;28.48;20.85;;;;;;;;;;6220966;23;20008;-83
2021/12/26 18:06:49;;;;;;;31.40;21.48;;;;;;;;;;6247271;23;20074;-84
2021/12/26 18:09:15;;;;;;;30.65;21.38;;;;;;;;;;6247291;23;20011;-85
2021/12/26 18:11:40;;;;;;;31.70;21.67;;;;;;;;;;6247278;23;20004;-85
2021/12/26 18:14:06;;;;;;;32.00;23.42;;;;;;;;;;6247318;23;20379;-85
2021/12/26 18:16:33;;;;;;;31.77;22.55;;;;;;;;;;6220545;23;20015;-85
2021/12/26 18:19:02;;;;;;;32.08;22.58;;;;;;;;;;6247437;23;20072;-88
2021/12/26 18:21:29;;;;;;;33.67;24.27;;;;;;;;;;6247376;23;20008;-85
2021/12/26 18:23:54;;;;;;;36.97;25.20;;;;;;;;;;6220201;23;20004;-85
2021/12/26 18:26:20;;;;;;;33.03;24.42;;;;;;;;;;6246404;23;20078;-84
2021/12/26 18:28:48;;;;;;;33.35;23.98;;;;;;;;;;6246851;23;20000;-86
2021/12/26 18:31:15;;;;;;;33.78;24.80;;;;;;;;;;6247194;23;20004;-84
2021/12/26 18:33:41;;;;;;;32.70;24.00;;;;;;;;;;6247849;23;20004;-84
2021/12/26 18:36:07;;;;;;;31.85;23.13;;;;;;;;;;6220972;23;20019;-84
2021/12/26 18:38:32;;;;;;;29.58;21.35;;;;;;;;;;6247602;23;20008;-88
2021/12/26 18:40:59;;;;;;;33.85;22.27;;;;;;;;;;6219990;23;20000;-84
2021/12/26 18:43:25;;;;;;;32.53;23.17;;;;;;;;;;6246889;23;20004;-86
2021/12/26 18:45:50;;;;;;;29.10;21.17;;;;;;;;;;6247476;23;20304;-87
2021/12/26 18:48:18;;;;;;;30.65;21.88;;;;;;;;;;6247212;23;20439;-86
2021/12/26 18:50:46;;;;;;;30.45;21.40;;;;;;;;;;6220208;23;20331;-86
2021/12/26 18:53:12;;;;;;;30.23;21.67;;;;;;;;;;6219868;23;20008;-85
2021/12/26 18:55:38;;;;;;;31.55;22.42;;;;;;;;;;6247121;23;20000;-84
2021/12/26 18:58:06;;;;;;;30.80;20.98;;;;;;;;;;6247279;23;20000;-87
2021/12/26 19:00:33;;;;;;;30.10;20.92;;;;;;;;;;6246212;23;20000;-87
2021/12/26 19:02:59;;;;;;;29.73;21.60;;;;;;;;;;6246530;23;20083;-86
2021/12/26 19:05:28;;;;;;;29.95;20.92;;;;;;;;;;6246214;23;20004;-85
2021/12/26 19:07:54;;;;;;;30.30;21.45;;;;;;;;;;6246603;23;20011;-84
2021/12/26 19:10:21;;;;;;;28.58;20.58;;;;;;;;;;6246892;23;20010;-85
2021/12/26 19:12:47;;;;;;;32.67;22.45;;;;;;;;;;6220219;23;20028;-86
2021/12/26 19:15:13;;;;;;;34.40;23.08;;;;;;;;;;6246708;23;20327;-84
2021/12/26 19:17:38;;;;;;;32.67;21.55;;;;;;;;;;6220815;23;20061;-88
2021/12/26 19:20:05;;;;;;;35.72;22.77;;;;;;;;;;6247800;23;20001;-90
2021/12/26 19:22:31;;;;;;;30.55;22.20;;;;;;;;;;6246910;23;20049;-85
2021/12/26 19:24:57;;;;;;;32.78;23.83;;;;;;;;;;6247835;23;20040;-84
2021/12/26 19:27:22;;;;;;;30.70;22.27;;;;;;;;;;6246375;23;20024;-85
2021/12/26 19:29:48;;;;;;;33.30;22.98;;;;;;;;;;6247013;23;20374;-85
2021/12/26 19:32:15;;;;;;;35.95;23.83;;;;;;;;;;6220082;23;20419;-86
2021/12/26 19:34:43;;;;;;;35.50;23.63;;;;;;;;;;6220140;23;20012;-85
2021/12/26 19:37:09;;;;;;;32.33;22.27;;;;;;;;;;6220125;23;20012;-89
2021/12/26 19:39:35;;;;;;;32.40;22.60;;;;;;;;;;6220159;23;20014;-85
2021/12/26 19:42:02;;;;;;;32.45;22.55;;;;;;;;;;6219791;23;20012;-85
2021/12/26 19:44:28;;;;;;;31.20;22.40;;;;;;;;;;6246774;23;20037;-85
2021/12/26 19:46:54;;;;;;;34.10;24.33;;;;;;;;;;6219943;23;20358;-86
2021/12/26 19:49:20;;;;;;;33.85;22.58;;;;;;;;;;6219895;23;20095;-87
2021/12/26 19:51:46;;;;;;;29.75;21.90;;;;;;;;;;6246599;23;20027;-86
2021/12/26 19:54:12;;;;;;;34.33;24.08;;;;;;;;;;6246928;23;20004;-85
2021/12/26 19:56:38;;;;;;;36.83;22.95;;;;;;;;;;6246970;23;20008;-85
2021/12/26 19:59:03;;;;;;;33.53;24.50;;;;;;;;;;6246721;23;20442;-84
2021/12/26 20:01:29;;;;;;;38.85;25.63;;;;;;;;;;6246779;23;20004;-85
2021/12/26 20:03:58;;;;;;;40.10;27.42;;;;;;;;;;6246386;23;20010;-85
2021/12/26 20:06:24;;;;;;;37.40;25.73;;;;;;;;;;6246453;23;20004;-85
2021/12/26 20:08:50;;;;;;;35.58;24.42;;;;;;;;;;6247102;23;20000;-85
2021/12/26 20:11:16;;;;;;;30.92;22.65;;;;;;;;;;6247025;23;20004;-89
2021/12/26 20:13:43;;;;;;;37.72;26.10;;;;;;;;;;6248828;23;20354;-89
2021/12/26 20:16:14;;;;;;;34.65;23.92;;;;;;;;;;6222343;23;20119;-86
2021/12/26 20:18:42;;;;;;;32.88;22.50;;;;;;;;;;6249114;23;19992;-89
2021/12/26 20:21:08;;;;;;;31.90;22.67;;;;;;;;;;6222397;23;20008;-89
2021/12/26 20:23:35;;;;;;;33.42;22.88;;;;;;;;;;6249469;23;19996;-92
2021/12/26 20:26:01;;;;;;;38.00;24.80;;;;;;;;;;6222016;23;20020;-86
2021/12/26 20:28:27;;;;;;;35.60;24.98;;;;;;;;;;6248861;23;20019;-85
2021/12/26 20:30:55;;;;;;;32.60;23.40;;;;;;;;;;6221713;23;20008;-85
2021/12/26 20:33:21;;;;;;;33.45;22.75;;;;;;;;;;6248594;23;20050;-86
2021/12/26 20:35:48;;;;;;;38.38;25.55;;;;;;;;;;6248798;23;20070;-86
2021/12/26 20:38:16;;;;;;;35.05;24.23;;;;;;;;;;6248660;23;19996;-85
2021/12/26 20:40:43;;;;;;;31.48;22.63;;;;;;;;;;6248725;23;20366;-85
2021/12/26 20:43:08;;;;;;;32.67;23.08;;;;;;;;;;6248339;23;20000;-85
2021/12/26 20:45:34;;;;;;;34.58;23.48;;;;;;;;;;6248002;23;20445;-86
2021/12/26 20:48:00;;;;;;;34.53;23.20;;;;;;;;;;6247752;23;20000;-84
2021/12/26 20:50:26;;;;;;;31.08;22.10;;;;;;;;;;6220625;23;20004;-87
2021/12/26 20:52:51;;;;;;;31.55;21.42;;;;;;;;;;6221459;23;20015;-85
2021/12/26 20:55:17;;;;;;;33.20;23.48;;;;;;;;;;6221617;23;20015;-86
2021/12/26 20:57:49;;;;;;;33.97;23.00;;;;;;;;;;6247654;23;20131;-85
2021/12/26 21:00:20;;;;;;;35.90;23.05;;;;;;;;;;6248134;23;20047;-85
2021/12/26 21:02:46;;;;;;;35.35;23.88;;;;;;;;;;6247850;23;20074;-86
2021/12/26 21:05:14;;;;;;;31.48;21.92;;;;;;;;;;6247801;23;20000;-87
2021/12/26 21:07:40;;;;;;;32.08;22.27;;;;;;;;;;6248373;23;20011;-86
2021/12/26 21:10:07;;;;;;;33.03;21.83;;;;;;;;;;6248505;23;19996;-85
2021/12/26 21:12:33;;;;;;;35.42;23.10;;;;;;;;;;6248247;23;19992;-83
2021/12/26 21:14:58;;;;;;;34.85;24.63;;;;;;;;;;6221908;23;20012;-83
2021/12/26 21:17:24;;;;;;;35.15;24.52;;;;;;;;;;6221829;23;20007;-85
2021/12/26 21:19:50;;;;;;;36.15;25.52;;;;;;;;;;6222003;23;20004;-88
2021/12/26 21:22:15;;;;;;;40.17;26.50;;;;;;;;;;6248518;23;20004;-87
2021/12/26 21:24:42;;;;;;;36.15;24.30;;;;;;;;;;6248927;23;20079;-92
2021/12/26 21:27:08;;;;;;;41.45;28.65;;;;;;;;;;6249776;23;20101;-89
2021/12/26 21:29:37;;;;;;;40.05;27.83;;;;;;;;;;6248896;23;20058;-88
2021/12/26 21:32:03;;;;;;;44.95;29.00;;;;;;;;;;6248700;23;20004;-84
2021/12/26 21:34:29;;;;;;;43.47;30.20;;;;;;;;;;6222383;23;20004;-91
2021/12/26 21:36:54;;;;;;;45.85;30.35;;;;;;;;;;6249307;23;20011;-91
2021/12/26 21:39:20;;;;;;;45.08;30.23;;;;;;;;;;6222431;23;20004;-90
2021/12/26 21:41:45;;;;;;;43.13;28.65;;;;;;;;;;6249501;23;20000;-90
2021/12/26 21:44:11;;;;;;;43.38;29.35;;;;;;;;;;6248855;23;19996;-92
2021/12/26 21:46:37;;;;;;;41.25;28.55;;;;;;;;;;6249351;23;20035;-89
2021/12/26 21:49:05;;;;;;;44.85;29.38;;;;;;;;;;6248958;23;20003;-91
2021/12/26 21:51:36;;;;;;;41.65;28.88;;;;;;;;;;6248671;23;20001;-89
2021/12/26 21:54:03;;;;;;;43.53;30.42;;;;;;;;;;6250013;23;20005;-90
2021/12/26 21:56:29;;;;;;;41.78;28.60;;;;;;;;;;6248889;23;20439;-92
2021/12/26 21:58:55;;;;;;;44.70;28.25;;;;;;;;;;6249197;23;20000;-90
2021/12/26 22:01:21;;;;;;;43.08;29.52;;;;;;;;;;6248894;23;20404;-91
2021/12/26 22:03:47;;;;;;;42.30;28.05;;;;;;;;;;6249225;23;20008;-94
2021/12/26 22:06:14;;;;;;;41.15;28.80;;;;;;;;;;6249147;23;20000;-94
2021/12/26 22:08:39;;;;;;;40.28;27.83;;;;;;;;;;6222621;23;20024;-91
2021/12/26 22:11:04;;;;;;;39.45;28.10;;;;;;;;;;6223200;23;20328;-89
